createdAt,value
2022-08-12T00:01:16.640Z,18.90
2022-08-12T00:04:06.718Z,18.90
2022-08-12T00:06:54.099Z,18.80
2022-08-12T00:09:40.511Z,18.80
2022-08-12T00:12:28.617Z,18.80
2022-08-12T00:15:15.338Z,18.80
2022-08-12T00:18:04.041Z,18.80
2022-08-12T00:20:50.135Z,18.80
2022-08-12T00:23:39.393Z,18.80
2022-08-12T00:26:25.519Z,18.70
2022-08-12T00:29:13.973Z,18.60
2022-08-12T00:35:11.665Z,18.60
2022-08-12T00:37:58.324Z,18.60
2022-08-12T00:41:09.956Z,18.60
2022-08-12T00:43:39.483Z,18.60
2022-08-12T00:46:26.956Z,18.50
2022-08-12T00:48:57.821Z,18.50
2022-08-12T00:52:09.948Z,18.50
2022-08-12T00:54:50.819Z,18.50
2022-08-12T00:57:22.722Z,18.50
2022-08-12T00:59:55.470Z,18.40
2022-08-12T01:02:30.142Z,18.40
2022-08-12T01:05:18.992Z,18.40
2022-08-12T01:08:07.616Z,18.40
2022-08-12T01:10:56.547Z,18.50
2022-08-12T01:13:26.919Z,18.40
2022-08-12T01:15:59.752Z,18.40
2022-08-12T01:18:33.985Z,18.40
2022-08-12T01:21:16.798Z,18.30
2022-08-12T01:24:30.050Z,18.30
2022-08-12T01:27:07.418Z,18.40
2022-08-12T01:29:47.361Z,18.50
2022-08-12T01:32:17.542Z,18.50
2022-08-12T01:34:56.126Z,18.50
2022-08-12T01:37:27.783Z,18.60
2022-08-12T01:40:33.541Z,18.60
2022-08-12T01:42:52.977Z,18.50
2022-08-12T01:45:25.076Z,18.50
2022-08-12T01:48:12.991Z,18.40
2022-08-12T01:51:01.296Z,18.40
2022-08-12T01:53:50.297Z,18.50
2022-08-12T01:56:25.621Z,18.50
2022-08-12T01:59:19.644Z,18.50
2022-08-12T02:01:55.128Z,18.60
2022-08-12T02:04:52.834Z,18.60
2022-08-12T02:07:56.343Z,18.60
2022-08-12T02:10:58.614Z,18.60
2022-08-12T02:13:56.578Z,18.70
2022-08-12T02:16:59.249Z,18.70
2022-08-12T02:20:04.636Z,18.80
2022-08-12T02:22:39.299Z,18.90
2022-08-12T02:25:13.401Z,18.80
2022-08-12T02:27:45.800Z,18.80
2022-08-12T02:30:42.058Z,18.80
2022-08-12T02:33:13.224Z,18.80
2022-08-12T02:35:42.421Z,18.70
2022-08-12T02:38:13.100Z,18.70
2022-08-12T02:40:45.490Z,18.60
2022-08-12T02:43:23.769Z,18.50
2022-08-12T02:46:01.563Z,18.50
2022-08-12T02:48:39.056Z,18.60
2022-08-12T02:51:13.426Z,18.60
2022-08-12T02:53:42.988Z,18.60
2022-08-12T02:56:12.600Z,18.50
2022-08-12T02:58:45.253Z,18.60
2022-08-12T03:01:15.648Z,18.50
2022-08-12T03:03:52.855Z,18.50
2022-08-12T03:06:24.947Z,18.50
2022-08-12T03:09:00.560Z,18.40
2022-08-12T03:11:42.767Z,18.30
2022-08-12T03:14:18.114Z,18.20
2022-08-12T03:17:03.969Z,18.20
2022-08-12T03:20:10.146Z,18.00
2022-08-12T03:22:41.896Z,18.10
2022-08-12T03:25:17.502Z,18.10
2022-08-12T03:27:51.827Z,18.10
2022-08-12T03:30:21.878Z,18.10
2022-08-12T03:32:52.852Z,18.10
2022-08-12T03:35:40.419Z,18.10
2022-08-12T03:38:16.277Z,18.10
2022-08-12T03:41:16.227Z,18.10
2022-08-12T03:44:13.602Z,18.00
2022-08-12T03:47:07.631Z,18.00
2022-08-12T03:49:54.896Z,18.00
2022-08-12T03:55:45.617Z,18.00
2022-08-12T03:58:32.588Z,17.90
2022-08-12T04:01:01.548Z,17.90
2022-08-12T04:03:48.409Z,17.90
2022-08-12T04:06:17.555Z,18.00
2022-08-12T04:09:16.627Z,18.00
2022-08-12T04:12:10.701Z,18.00
2022-08-12T04:14:40.454Z,17.90
2022-08-12T04:17:09.623Z,17.90
2022-08-12T04:19:39.378Z,17.90
2022-08-12T04:22:08.201Z,18.00
2022-08-12T04:24:40.756Z,18.00
2022-08-12T04:27:11.728Z,18.00
2022-08-12T04:30:16.475Z,18.00
2022-08-12T04:32:30.033Z,18.00
2022-08-12T04:34:59.106Z,18.10
2022-08-12T04:37:28.322Z,18.20
2022-08-12T04:40:32.159Z,18.20
2022-08-12T04:43:02.486Z,18.20
2022-08-12T04:45:32.641Z,18.20
2022-08-12T04:48:02.645Z,18.20
2022-08-12T04:50:36.256Z,18.20
2022-08-12T04:53:31.694Z,18.30
2022-08-12T04:56:01.992Z,18.30
2022-08-12T04:58:30.790Z,18.40
2022-08-12T05:00:59.433Z,18.40
2022-08-12T05:03:28.765Z,18.40
2022-08-12T05:06:26.277Z,18.50
2022-08-12T05:08:56.819Z,18.50
2022-08-12T05:11:27.128Z,18.50
2022-08-12T05:14:02.145Z,18.40
2022-08-12T05:16:34.013Z,18.40
2022-08-12T05:19:03.165Z,18.40
2022-08-12T05:21:31.723Z,18.50
2022-08-12T05:24:00.822Z,18.50
2022-08-12T05:26:56.134Z,18.60
2022-08-12T05:30:08.161Z,18.60
2022-08-12T05:32:20.699Z,18.60
2022-08-12T05:34:49.432Z,18.60
2022-08-12T05:37:18.192Z,18.60
2022-08-12T05:39:46.869Z,18.70
2022-08-12T05:42:18.626Z,18.80
2022-08-12T05:45:00.282Z,18.90
2022-08-12T05:47:38.490Z,19.00
2022-08-12T05:50:18.418Z,19.00
2022-08-12T05:52:48.070Z,19.10
2022-08-12T05:55:17.088Z,19.10
2022-08-12T05:57:49.737Z,19.20
2022-08-12T06:00:21.004Z,19.30
2022-08-12T06:02:49.504Z,19.30
2022-08-12T06:05:22.916Z,19.40
2022-08-12T06:08:02.159Z,19.40
2022-08-12T06:10:33.017Z,19.40
2022-08-12T06:13:06.210Z,19.40
2022-08-12T06:15:37.852Z,19.40
2022-08-12T06:18:31.496Z,19.40
2022-08-12T06:21:01.927Z,19.50
2022-08-12T06:23:31.406Z,19.60
2022-08-12T06:26:16.539Z,19.80
2022-08-12T06:28:48.624Z,19.80
2022-08-12T06:31:32.819Z,19.90
2022-08-12T06:35:25.658Z,20.00
2022-08-12T06:36:53.625Z,20.10
2022-08-12T06:39:24.408Z,20.30
2022-08-12T06:42:33.013Z,20.40
2022-08-12T06:45:02.211Z,20.50
2022-08-12T06:47:32.653Z,20.60
2022-08-12T06:50:01.364Z,20.70
2022-08-12T06:52:31.369Z,20.80
2022-08-12T06:55:26.109Z,20.90
2022-08-12T06:58:07.748Z,21.00
2022-08-12T07:00:40.430Z,21.00
2022-08-12T07:03:16.532Z,21.20
2022-08-12T07:05:51.953Z,21.30
2022-08-12T07:08:20.738Z,21.30
2022-08-12T07:10:59.288Z,21.40
2022-08-12T07:14:12.595Z,21.40
2022-08-12T07:16:28.396Z,21.50
2022-08-12T07:18:58.625Z,21.80
2022-08-12T07:21:59.681Z,22.00
2022-08-12T07:24:20.518Z,22.10
2022-08-12T07:26:49.069Z,22.20
2022-08-12T07:29:18.777Z,22.20
2022-08-12T07:31:48.801Z,22.30
2022-08-12T07:34:17.290Z,22.40
2022-08-12T07:36:47.699Z,22.50
2022-08-12T07:39:16.297Z,22.40
2022-08-12T07:41:45.089Z,22.60
2022-08-12T07:44:13.905Z,22.60
2022-08-12T07:46:45.388Z,22.70
2022-08-12T07:49:17.859Z,23.00
2022-08-12T07:51:46.845Z,23.10
2022-08-12T07:54:16.881Z,23.30
2022-08-12T07:56:45.422Z,23.60
2022-08-12T07:59:14.174Z,23.80
2022-08-12T08:01:43.304Z,23.80
2022-08-12T08:04:29.232Z,23.80
2022-08-12T08:07:00.502Z,23.70
2022-08-12T08:09:29.260Z,23.60
2022-08-12T08:12:19.351Z,23.50
2022-08-12T08:14:52.223Z,23.60
2022-08-12T08:17:22.106Z,23.80
2022-08-12T08:20:03.229Z,24.00
2022-08-12T08:22:41.314Z,24.20
2022-08-12T08:25:34.923Z,24.30
2022-08-12T08:28:11.244Z,24.40
2022-08-12T08:30:44.053Z,24.40
2022-08-12T08:33:22.664Z,24.60
2022-08-12T08:36:03.102Z,24.70
2022-08-12T08:38:35.450Z,24.90
2022-08-12T08:42:14.275Z,25.10
2022-08-12T08:44:14.519Z,25.10
2022-08-12T08:46:44.535Z,25.20
2022-08-12T08:49:15.466Z,25.30
2022-08-12T08:51:45.235Z,25.30
2022-08-12T08:54:15.228Z,25.20
2022-08-12T08:56:56.035Z,25.00
2022-08-12T08:59:24.549Z,24.80
2022-08-12T09:01:53.211Z,25.00
2022-08-12T09:05:11.267Z,25.20
2022-08-12T09:07:51.728Z,25.30
2022-08-12T09:10:30.938Z,25.20
2022-08-12T09:13:23.615Z,25.20
2022-08-12T09:15:59.539Z,25.20
2022-08-12T09:18:33.290Z,25.30
2022-08-12T09:21:09.483Z,25.40
2022-08-12T09:23:59.706Z,25.50
2022-08-12T09:26:29.134Z,25.50
2022-08-12T09:28:58.428Z,25.50
2022-08-12T09:32:03.818Z,25.50
2022-08-12T09:34:28.502Z,25.60
2022-08-12T09:37:19.233Z,25.60
2022-08-12T09:40:06.443Z,25.50
2022-08-12T09:43:15.223Z,25.30
2022-08-12T09:46:19.789Z,25.40
2022-08-12T09:48:39.289Z,25.70
2022-08-12T09:51:21.605Z,25.70
2022-08-12T09:54:08.543Z,25.90
2022-08-12T09:57:01.912Z,26.00
2022-08-12T10:00:13.313Z,26.30
2022-08-12T10:02:44.949Z,26.50
2022-08-12T10:05:13.867Z,26.70
2022-08-12T10:07:46.587Z,27.00
2022-08-12T10:10:23.007Z,27.20
2022-08-12T10:13:38.418Z,27.20
2022-08-12T10:16:08.254Z,27.30
2022-08-12T10:18:54.641Z,27.10
2022-08-12T10:21:35.719Z,26.80
2022-08-12T10:24:06.794Z,26.50
2022-08-12T10:26:53.041Z,26.40
2022-08-12T10:30:38.461Z,26.20
2022-08-12T10:33:02.248Z,26.10
2022-08-12T10:35:17.573Z,26.00
2022-08-12T10:38:39.128Z,26.10
2022-08-12T10:40:56.669Z,26.30
2022-08-12T10:43:55.753Z,26.70
2022-08-12T10:46:30.931Z,27.00
2022-08-12T10:49:06.244Z,27.00
2022-08-12T10:52:33.189Z,26.90
2022-08-12T10:54:49.275Z,26.70
2022-08-12T10:58:12.714Z,26.50
2022-08-12T11:00:34.860Z,26.40
2022-08-12T11:04:31.872Z,26.50
2022-08-12T11:07:08.741Z,26.70
2022-08-12T11:08:43.000Z,27.00
2022-08-12T11:12:07.870Z,27.20
2022-08-12T11:14:47.890Z,27.10
2022-08-12T11:17:06.476Z,27.10
2022-08-12T11:19:46.525Z,27.10
2022-08-12T11:22:18.022Z,27.40
2022-08-12T11:24:51.467Z,27.50
2022-08-12T11:27:20.460Z,27.70
2022-08-12T11:30:02.214Z,27.90
2022-08-12T11:32:52.016Z,28.00
2022-08-12T11:35:21.087Z,28.00
2022-08-12T11:37:59.227Z,28.10
2022-08-12T11:40:29.225Z,28.30
2022-08-12T11:43:17.916Z,28.30
2022-08-12T11:45:53.341Z,28.30
2022-08-12T11:48:26.706Z,28.40
2022-08-12T11:50:56.320Z,28.60
2022-08-12T11:53:57.811Z,28.80
2022-08-12T11:56:14.906Z,28.90
2022-08-12T12:02:02.847Z,28.80
2022-08-12T12:04:39.928Z,28.90
2022-08-12T12:07:15.030Z,28.90
2022-08-12T12:09:53.597Z,29.00
2022-08-12T12:12:36.102Z,28.90
2022-08-12T12:15:07.097Z,28.70
2022-08-12T12:17:55.012Z,28.70
2022-08-12T12:20:26.155Z,28.30
2022-08-12T12:23:29.124Z,28.10
2022-08-12T12:26:07.187Z,27.80
2022-08-12T12:28:41.454Z,27.60
2022-08-12T12:32:10.321Z,27.40
2022-08-12T12:34:12.945Z,27.20
2022-08-12T12:37:00.768Z,27.10
2022-08-12T12:39:29.692Z,27.10
2022-08-12T12:42:42.745Z,27.10
2022-08-12T12:45:19.542Z,27.00
2022-08-12T12:47:58.232Z,27.00
2022-08-12T12:50:35.007Z,27.00
2022-08-12T12:53:04.563Z,26.90
2022-08-12T12:55:36.073Z,26.70
2022-08-12T12:58:11.266Z,26.50
2022-08-12T13:00:51.000Z,26.40
2022-08-12T13:03:23.388Z,26.30
2022-08-12T13:05:54.110Z,26.00
2022-08-12T13:08:27.835Z,25.90
2022-08-12T13:11:00.553Z,25.80
2022-08-12T13:14:08.018Z,25.70
2022-08-12T13:16:22.061Z,25.80
2022-08-12T13:18:52.237Z,26.00
2022-08-12T13:21:32.779Z,26.10
2022-08-12T13:24:07.588Z,26.10
2022-08-12T13:26:40.197Z,26.10
2022-08-12T13:29:11.572Z,25.90
2022-08-12T13:32:19.279Z,25.80
2022-08-12T13:34:34.443Z,25.70
2022-08-12T13:37:09.631Z,25.70
2022-08-12T13:39:39.393Z,25.90
2022-08-12T13:42:13.659Z,26.10
2022-08-12T13:44:46.122Z,26.20
2022-08-12T13:47:19.588Z,26.40
2022-08-12T13:49:54.399Z,26.50
2022-08-12T13:52:25.602Z,26.60
2022-08-12T13:54:56.793Z,26.70
2022-08-12T13:57:26.633Z,26.60
2022-08-12T14:00:00.666Z,26.50
2022-08-12T14:02:33.000Z,26.30
2022-08-12T14:05:02.370Z,26.20
2022-08-12T14:08:01.764Z,25.90
2022-08-12T14:10:50.534Z,25.80
2022-08-12T14:14:04.015Z,25.70
2022-08-12T14:16:16.847Z,25.90
2022-08-12T14:19:18.453Z,25.90
2022-08-12T14:22:00.536Z,25.80
2022-08-12T14:24:40.638Z,25.70
2022-08-12T14:27:11.389Z,25.70
2022-08-12T14:30:04.512Z,25.70
2022-08-12T14:32:36.037Z,25.70
2022-08-12T14:35:09.380Z,25.80
2022-08-12T14:38:25.911Z,25.70
2022-08-12T14:40:57.833Z,25.60
2022-08-12T14:45:50.099Z,25.60
2022-08-12T14:48:24.011Z,25.70
2022-08-12T14:52:38.917Z,25.70
2022-08-12T14:54:55.876Z,25.80
2022-08-12T14:57:19.277Z,25.80
2022-08-12T15:00:31.208Z,25.80
2022-08-12T15:03:03.846Z,25.70
2022-08-12T15:06:05.482Z,25.60
2022-08-12T15:08:29.769Z,25.50
2022-08-12T15:11:02.910Z,25.60
2022-08-12T15:13:34.762Z,25.60
2022-08-12T15:16:10.501Z,25.60
2022-08-12T15:18:40.845Z,25.70
2022-08-12T15:21:25.267Z,25.70
2022-08-12T15:24:13.823Z,25.70
2022-08-12T15:26:46.600Z,25.70
2022-08-12T15:29:15.161Z,25.70
2022-08-12T15:32:00.968Z,25.60
2022-08-12T15:34:33.854Z,25.50
2022-08-12T15:37:02.701Z,25.30
2022-08-12T15:39:36.568Z,25.20
2022-08-12T15:42:05.706Z,25.10
2022-08-12T15:44:37.762Z,25.20
2022-08-12T15:47:16.337Z,25.20
2022-08-12T15:49:59.775Z,25.30
2022-08-12T15:52:31.262Z,25.40
2022-08-12T15:55:06.281Z,25.30
2022-08-12T15:57:50.470Z,25.30
2022-08-12T16:00:33.322Z,25.20
2022-08-12T16:03:05.679Z,25.20
2022-08-12T16:06:12.161Z,25.10
2022-08-12T16:08:36.513Z,25.10
2022-08-12T16:11:07.361Z,25.00
2022-08-12T16:13:44.239Z,25.00
2022-08-12T16:16:24.088Z,24.90
2022-08-12T16:18:59.848Z,24.80
2022-08-12T16:21:51.787Z,24.70
2022-08-12T16:24:22.069Z,24.60
2022-08-12T16:26:53.805Z,24.50
2022-08-12T16:29:29.525Z,24.40
2022-08-12T16:32:19.289Z,24.30
2022-08-12T16:34:55.856Z,24.30
2022-08-12T16:37:32.847Z,24.20
2022-08-12T16:40:15.349Z,24.10
2022-08-12T16:42:54.250Z,24.10
2022-08-12T16:46:23.220Z,24.00
2022-08-12T16:48:34.982Z,23.90
2022-08-12T16:51:09.262Z,23.80
2022-08-12T16:53:44.140Z,23.70
2022-08-12T16:56:17.148Z,23.70
2022-08-12T16:58:48.164Z,23.60
2022-08-12T17:01:16.816Z,23.50
2022-08-12T17:04:08.383Z,23.40
2022-08-12T17:06:47.257Z,23.30
2022-08-12T17:09:18.453Z,23.30
2022-08-12T17:11:49.746Z,23.20
2022-08-12T17:14:20.480Z,23.10
2022-08-12T17:16:55.392Z,23.10
2022-08-12T17:20:28.540Z,23.10
2022-08-12T17:22:16.615Z,23.10
2022-08-12T17:24:55.004Z,23.00
2022-08-12T17:27:26.428Z,23.00
2022-08-12T17:30:04.092Z,22.90
2022-08-12T17:32:37.183Z,22.90
2022-08-12T17:35:29.698Z,22.80
2022-08-12T17:38:11.528Z,22.70
2022-08-12T17:40:46.478Z,22.70
2022-08-12T17:43:57.455Z,22.50
2022-08-12T17:46:13.160Z,22.50
2022-08-12T17:48:55.466Z,22.40
2022-08-12T17:51:31.324Z,22.40
2022-08-12T17:54:11.527Z,22.30
2022-08-12T18:20:40.454Z,22.10
2022-08-12T18:23:11.774Z,21.60
2022-08-12T18:26:16.425Z,21.50
2022-08-12T18:28:48.392Z,21.40
2022-08-12T18:31:22.875Z,21.20
2022-08-12T18:33:53.549Z,21.10
2022-08-12T18:36:25.244Z,20.90
2022-08-12T18:38:59.492Z,20.80
2022-08-12T18:41:33.657Z,20.70
2022-08-12T18:44:09.705Z,20.50
2022-08-12T18:46:53.717Z,20.40
2022-08-12T18:49:34.890Z,20.30
2022-08-12T18:52:11.976Z,20.20
2022-08-12T18:54:49.168Z,20.20
2022-08-12T18:57:46.037Z,20.30
2022-08-12T19:00:22.051Z,20.30
2022-08-12T19:02:53.969Z,20.20
2022-08-12T19:05:53.270Z,20.10
2022-08-12T19:08:16.799Z,20.10
2022-08-12T19:10:50.571Z,19.90
2022-08-12T19:13:39.437Z,19.90
2022-08-12T19:16:12.789Z,19.90
2022-08-12T19:18:44.970Z,19.90
2022-08-12T19:21:16.577Z,19.80
2022-08-12T19:24:12.641Z,19.80
2022-08-12T19:31:55.517Z,19.70
2022-08-12T19:37:27.480Z,19.50
2022-08-12T19:40:10.091Z,19.50
2022-08-12T19:43:00.611Z,19.40
2022-08-12T19:45:43.567Z,19.40
2022-08-12T19:48:20.983Z,19.40
2022-08-12T19:50:53.006Z,19.30
2022-08-12T19:53:23.974Z,19.30
2022-08-12T19:55:55.595Z,19.30
2022-08-12T19:58:26.825Z,19.30
2022-08-12T20:00:56.489Z,19.20
2022-08-12T20:03:57.647Z,19.10
2022-08-12T20:06:33.927Z,19.10
2022-08-12T20:09:04.958Z,19.10
2022-08-12T20:12:13.270Z,19.10
2022-08-12T20:14:22.435Z,19.10
2022-08-12T20:17:01.598Z,19.10
2022-08-12T20:20:05.687Z,19.20
2022-08-12T20:22:31.657Z,19.20
2022-08-12T20:25:07.206Z,19.30
2022-08-12T20:28:01.199Z,19.30
2022-08-12T20:30:37.696Z,19.40
2022-08-12T20:33:23.080Z,19.40
2022-08-12T20:36:13.757Z,19.40
2022-08-12T20:38:51.741Z,19.40
2022-08-12T20:41:20.991Z,19.30
2022-08-12T20:43:56.593Z,19.30
2022-08-12T20:46:31.696Z,19.30
2022-08-12T20:49:01.225Z,19.30
2022-08-12T20:51:55.382Z,19.30
2022-08-12T20:54:32.796Z,19.30
2022-08-12T20:57:09.635Z,19.30
2022-08-12T20:59:49.446Z,19.30
2022-08-12T21:02:24.580Z,19.20
2022-08-12T21:05:20.341Z,19.10
2022-08-12T21:07:52.706Z,19.10
2022-08-12T21:10:21.828Z,19.10
2022-08-12T21:12:55.488Z,19.10
2022-08-12T21:15:30.554Z,19.10
2022-08-12T21:18:28.657Z,19.10
2022-08-12T21:20:59.741Z,19.10
2022-08-12T21:23:30.774Z,19.20
2022-08-12T21:26:11.221Z,19.20
2022-08-12T21:28:40.122Z,19.20
2022-08-12T21:32:34.710Z,19.20
2022-08-12T21:34:08.642Z,19.30
2022-08-12T21:36:43.382Z,19.30
2022-08-12T21:39:24.015Z,19.40
2022-08-12T21:42:02.440Z,19.40
2022-08-12T21:45:47.378Z,19.60
2022-08-12T21:47:28.958Z,19.60
2022-08-12T21:50:03.119Z,19.60
2022-08-12T21:52:40.376Z,19.60
2022-08-12T21:55:18.280Z,19.60
2022-08-12T21:58:11.672Z,19.60
2022-08-12T22:00:45.249Z,19.60
2022-08-12T22:04:02.728Z,19.60
2022-08-12T22:06:31.396Z,19.60
2022-08-12T22:09:17.221Z,19.60
2022-08-12T22:11:59.375Z,19.60
2022-08-12T22:14:29.945Z,19.60
2022-08-12T22:17:01.493Z,19.60
2022-08-12T22:19:35.275Z,19.60
2022-08-12T22:22:05.429Z,19.60
2022-08-12T22:24:34.897Z,19.60
2022-08-12T22:27:28.353Z,19.60
2022-08-12T22:30:16.827Z,19.60
2022-08-12T22:32:49.865Z,19.70
2022-08-12T22:35:55.294Z,19.70
2022-08-12T22:38:26.764Z,19.70
2022-08-12T22:41:01.489Z,19.70
2022-08-12T22:44:00.551Z,19.80
2022-08-12T22:46:52.103Z,19.80
2022-08-12T22:49:37.374Z,19.90
2022-08-12T22:52:13.155Z,19.90
2022-08-12T22:54:57.919Z,19.90
2022-08-12T22:57:54.417Z,19.90
2022-08-12T23:00:27.906Z,19.90
2022-08-12T23:03:02.854Z,20.00
2022-08-12T23:05:36.736Z,20.00
2022-08-12T23:08:30.118Z,19.90
2022-08-12T23:11:06.185Z,19.90
2022-08-12T23:13:56.271Z,19.90
2022-08-12T23:16:31.709Z,19.80
2022-08-12T23:19:10.838Z,19.80
2022-08-12T23:22:05.651Z,19.80
2022-08-12T23:24:56.584Z,19.80
2022-08-12T23:27:50.731Z,19.90
2022-08-12T23:30:31.621Z,19.90
2022-08-12T23:33:19.737Z,19.90
2022-08-12T23:36:03.224Z,19.90
2022-08-12T23:38:34.524Z,19.90
2022-08-12T23:41:06.312Z,19.90
2022-08-12T23:43:38.827Z,19.90
2022-08-12T23:46:11.417Z,19.90
2022-08-12T23:48:47.878Z,19.90
2022-08-12T23:51:24.633Z,19.80
2022-08-12T23:53:59.787Z,19.80
2022-08-12T23:56:33.525Z,19.80
2022-08-12T23:59:03.340Z,19.80
